Time;durP1;ratioP1;P1;durP2;ratioP2;P2;SDS_P1;SDS_P2;PMS_P1;PMS_P2;Temp;Humidity;BMP_temperature;BMP_pressure;BME280_temperature;BME280_humidity;BME280_pressure;Samples;Min_cycle;Max_cycle;Signal;HPM_P1;HPM_P2
2022/12/12 00:01:43;;;;;;;52.47;32.83;;;4.00;99.90;;;4.06;84.90;100894.59;5053554;28;20045;-81
2022/12/12 00:04:12;;;;;;;50.13;33.07;;;4.00;99.90;;;3.95;84.86;100948.44;5053126;28;20041;-81
2022/12/12 00:06:41;;;;;;;50.40;33.10;;;4.00;99.90;;;3.76;84.70;100871.22;5053481;28;20040;-81
2022/12/12 00:09:09;;;;;;;56.07;33.60;;;3.90;99.90;;;3.87;85.23;100890.66;5052902;28;20087;-81
2022/12/12 00:11:38;;;;;;;57.27;34.13;;;3.80;99.90;;;3.77;84.79;100893.06;5053141;28;20140;-81
2022/12/12 00:14:08;;;;;;;51.43;32.87;;;3.80;99.90;;;3.52;84.83;100861.09;5053094;28;20083;-81
2022/12/12 00:16:36;;;;;;;51.20;32.35;;;3.70;99.90;;;2.81;84.58;100735.69;5053028;28;20052;-82
2022/12/12 00:19:05;;;;;;;55.33;34.30;;;3.70;99.90;;;3.45;85.53;100876.59;5053007;28;20471;-81
2022/12/12 00:21:33;;;;;;;53.17;33.70;;;3.50;99.90;;;3.11;86.36;100825.25;5053245;28;20044;-81
2022/12/12 00:24:01;;;;;;;54.93;33.27;;;3.40;99.90;;;3.24;86.19;100876.97;5052711;28;20048;-81
2022/12/12 00:26:33;;;;;;;54.63;34.83;;;3.30;99.90;;;3.27;87.07;100897.94;5052899;28;20047;-81
2022/12/12 00:29:03;;;;;;;57.37;36.67;;;3.20;99.90;;;3.24;87.11;100894.38;5052704;28;20490;-81
2022/12/12 00:31:33;;;;;;;58.97;36.70;;;3.20;99.90;;;3.22;87.20;100907.41;5068390;28;20076;-81
2022/12/12 00:34:03;;;;;;;59.20;37.45;;;3.30;99.90;;;3.11;87.19;100881.84;5052597;28;20041;-81
2022/12/12 00:36:32;;;;;;;58.30;37.50;;;3.30;99.90;;;3.15;87.15;100863.69;5052636;28;20045;-81
2022/12/12 00:39:00;;;;;;;60.33;37.00;;;3.30;99.90;;;3.13;87.14;100862.75;5052338;28;20513;-81
2022/12/12 00:41:29;;;;;;;60.37;38.07;;;3.40;99.90;;;3.45;87.80;100897.50;5052552;28;20073;-80
2022/12/12 00:43:57;;;;;;;58.07;35.70;;;3.50;99.90;;;2.90;87.25;100818.59;5052455;28;20041;-81
2022/12/12 00:46:26;;;;;;;58.63;36.57;;;3.40;99.90;;;3.36;87.87;100894.69;5051500;28;20041;-81
2022/12/12 00:48:58;;;;;;;64.00;38.67;;;3.40;99.90;;;3.29;87.99;100900.63;5052391;28;20403;-81
2022/12/12 00:51:29;;;;;;;57.83;37.33;;;3.30;99.90;;;3.03;88.19;100865.97;5068307;28;20124;-81
2022/12/12 00:53:58;;;;;;;58.53;35.70;;;3.20;99.90;;;2.60;88.62;100803.91;5056196;28;20079;-81
2022/12/12 00:56:28;;;;;;;56.63;37.27;;;3.20;99.90;;;2.91;88.60;100836.94;5056141;28;20502;-81
2022/12/12 00:58:57;;;;;;;58.63;37.72;;;3.20;99.90;;;3.29;88.34;100892.78;5056664;28;20056;-81
2022/12/12 01:01:28;;;;;;;57.60;36.83;;;3.30;99.90;;;3.34;88.66;100901.59;5056588;28;20064;-81
2022/12/12 01:03:58;;;;;;;56.93;36.67;;;3.30;99.90;;;3.09;88.85;100880.91;5056257;28;20449;-82
2022/12/12 01:06:28;;;;;;;55.88;35.47;;;3.20;99.90;;;3.09;89.05;100899.22;5071655;28;20077;-81
2022/12/12 01:08:57;;;;;;;56.13;35.93;;;3.10;99.90;;;2.82;89.66;100893.25;5055861;28;20037;-79
2022/12/12 01:11:27;;;;;;;55.40;35.23;;;2.90;99.90;;;2.77;90.72;100907.94;5054758;28;20041;-81
2022/12/12 01:13:56;;;;;;;56.53;35.65;;;2.70;99.90;;;2.54;91.31;100882.06;5071595;28;20475;-82
2022/12/12 01:16:25;;;;;;;58.60;36.20;;;2.60;99.90;;;2.58;91.46;100899.59;5055714;28;20036;-81
2022/12/12 01:18:53;;;;;;;58.23;36.07;;;2.50;99.90;;;2.59;92.09;100903.94;5055718;28;20053;-82
2022/12/12 01:21:24;;;;;;;59.93;36.70;;;2.50;99.90;;;2.64;92.32;100909.31;5055987;28;20131;-82
2022/12/12 01:23:52;;;;;;;59.55;36.67;;;2.50;99.90;;;2.53;92.25;100877.69;5055672;28;20045;-81
2022/12/12 01:26:23;;;;;;;56.00;36.83;;;2.50;99.90;;;2.59;92.14;100890.03;5055746;28;20399;-82
2022/12/12 01:28:52;;;;;;;60.47;37.97;;;2.50;99.90;;;2.70;91.88;100899.94;5055604;28;20041;-82
2022/12/12 01:31:21;;;;;;;57.30;36.73;;;2.60;99.90;;;2.79;91.51;100911.47;5055483;28;20049;-81
2022/12/12 01:33:49;;;;;;;58.53;35.97;;;2.60;99.90;;;1.04;91.11;100585.75;5055643;28;20047;-81
2022/12/12 01:36:20;;;;;;;54.20;34.57;;;2.70;99.90;;;3.00;90.54;100914.66;5055614;28;20041;-81
2022/12/12 01:38:55;;;;;;;58.50;36.00;;;2.90;99.90;;;2.93;89.99;100915.31;5055505;28;20549;-82
2022/12/12 01:41:24;;;;;;;56.43;35.10;;;2.90;99.90;;;3.01;89.59;100916.41;5054379;28;20446;-81
2022/12/12 01:43:54;;;;;;;61.53;37.03;;;3.00;99.90;;;2.90;89.29;100917.84;5055500;28;20076;-81
2022/12/12 01:46:42;;;;;;;55.80;36.10;;;2.90;99.90;;;2.83;88.86;100939.44;5055185;28;20064;-81
2022/12/12 01:49:20;;;;;;;57.30;34.13;;;2.80;99.90;;;2.71;88.85;100904.28;5054392;28;20106;-82
2022/12/12 01:51:52;;;;;;;56.83;35.53;;;2.80;99.90;;;2.72;88.78;100999.19;5055343;28;20067;-79
2022/12/12 01:54:26;;;;;;;58.37;34.47;;;2.80;99.90;;;2.84;88.71;100930.75;5055634;28;20072;-81
2022/12/12 01:56:58;;;;;;;56.00;35.57;;;2.80;99.90;;;2.78;88.23;100907.06;5055170;28;20091;-81
2022/12/12 01:59:28;;;;;;;57.37;34.60;;;2.90;99.90;;;2.69;87.98;100907.72;5055134;28;20095;-81
2022/12/12 02:01:56;;;;;;;55.60;34.40;;;2.80;99.90;;;1.61;87.87;100722.88;5055416;28;20048;-82
2022/12/12 02:04:27;;;;;;;59.00;35.87;;;2.90;99.90;;;2.77;88.09;100915.75;5054533;28;20043;-80
2022/12/12 02:06:57;;;;;;;57.03;35.40;;;2.90;99.90;;;2.82;87.69;100942.88;5053897;28;20049;-81
2022/12/12 02:09:27;;;;;;;53.37;34.33;;;2.90;99.90;;;2.75;87.10;100903.53;5070671;28;20041;-81
2022/12/12 02:11:57;;;;;;;58.25;34.97;;;3.00;99.90;;;2.88;87.34;100949.16;5055532;28;20041;-81
2022/12/12 02:14:30;;;;;;;57.20;35.50;;;3.00;99.90;;;2.88;87.61;100953.50;5053800;28;20044;-80
2022/12/12 02:17:20;;;;;;;56.17;35.00;;;2.90;99.90;;;2.74;87.69;100961.84;5070512;28;20053;-81
2022/12/12 02:20:44;;;;;;;61.77;37.20;;;2.80;99.90;;;2.67;87.83;100952.03;5053607;28;20375;-81
2022/12/12 02:23:45;;;;;;;60.30;35.87;;;2.80;99.90;;;2.32;88.04;100890.13;5070288;28;20446;-81
2022/12/12 02:27:02;;;;;;;58.87;35.37;;;2.80;99.90;;;2.48;87.98;100922.75;5054465;28;20041;-81
2022/12/12 02:30:04;;;;;;;62.30;36.90;;;2.80;99.90;;;2.67;87.77;100961.63;5054419;28;20103;-81
2022/12/12 02:33:02;;;;;;;58.53;35.73;;;2.70;99.90;;;2.57;87.95;100957.88;5054707;28;20398;-81
2022/12/12 02:35:43;;;;;;;54.63;35.03;;;2.60;99.90;;;2.41;88.37;100952.13;5054652;28;20445;-81
2022/12/12 02:38:22;;;;;;;53.83;33.77;;;2.40;99.90;;;2.43;88.65;100953.97;5054265;28;20053;-81
2022/12/12 02:41:04;;;;;;;53.87;34.03;;;2.30;99.90;;;2.36;88.53;100958.97;5054532;28;20040;-82
2022/12/12 02:43:39;;;;;;;66.20;36.10;;;2.30;99.90;;;2.27;88.90;100969.09;5054151;28;20060;-82
2022/12/12 02:46:14;;;;;;;55.20;35.00;;;2.20;99.90;;;2.31;89.26;100950.97;5054280;28;20044;-81
2022/12/12 02:48:51;;;;;;;56.23;36.27;;;2.20;99.90;;;2.16;89.06;100934.88;5054111;28;20079;-81
2022/12/12 02:51:21;;;;;;;53.60;33.60;;;2.20;99.90;;;1.84;88.99;100886.94;5054315;28;20146;-81
2022/12/12 02:53:51;;;;;;;57.38;35.58;;;2.20;99.90;;;2.19;88.86;100974.09;5054043;28;20037;-82
2022/12/12 02:56:47;;;;;;;55.83;35.75;;;2.20;99.90;;;2.28;88.95;100950.00;5054119;28;20044;-81
2022/12/12 02:59:22;;;;;;;58.57;36.33;;;2.20;99.90;;;2.14;89.04;100952.22;5053783;28;20098;-80
2022/12/12 03:02:15;;;;;;;54.33;34.70;;;2.10;99.90;;;2.23;89.63;100956.81;5054089;28;20048;-81
2022/12/12 03:08:12;;;;;;;56.47;34.37;;;2.20;99.90;;;2.35;89.35;100958.06;5053715;28;20201;-81
2022/12/12 03:10:52;;;;;;;57.27;34.93;;;2.30;99.90;;;2.15;89.35;100935.69;5053660;28;20036;-81
2022/12/12 03:13:31;;;;;;;58.25;36.33;;;2.30;99.90;;;2.41;89.31;100966.09;5053629;28;20037;-81
2022/12/12 03:16:13;;;;;;;55.87;33.80;;;2.40;99.90;;;2.17;89.47;100967.94;5052919;28;20402;-81
2022/12/12 03:18:52;;;;;;;53.20;34.43;;;2.20;99.90;;;1.76;90.12;100924.94;5053554;28;20079;-81
2022/12/12 03:21:32;;;;;;;62.63;38.30;;;2.00;99.90;;;1.89;90.91;100964.44;5053482;28;20557;-81
2022/12/12 03:24:04;;;;;;;;;;;1.80;99.90;;;1.74;91.07;100910.97;5053911;28;20376;-82
2022/12/12 03:26:42;;;;;;;61.60;37.20;;;1.90;99.90;;;2.08;90.78;100952.00;5053293;28;19932;-80
2022/12/12 03:29:15;;;;;;;64.27;37.27;;;2.00;99.90;;;2.11;90.91;100967.75;5053663;28;20426;-82
2022/12/12 03:31:48;;;;;;;61.50;38.17;;;2.00;99.90;;;1.98;90.67;100931.69;5053523;28;20041;-81
2022/12/12 03:34:25;;;;;;;59.00;36.63;;;2.10;99.90;;;1.76;90.11;100911.91;5053553;28;20037;-81
2022/12/12 03:37:03;;;;;;;59.17;36.13;;;2.10;99.90;;;1.94;90.52;100961.13;5053151;28;20045;-80
2022/12/12 03:39:39;;;;;;;60.33;37.13;;;1.90;99.90;;;1.38;90.79;100896.78;5053203;28;20063;-81
2022/12/12 03:42:16;;;;;;;60.73;38.23;;;1.70;99.90;;;1.87;91.60;100953.97;5053736;28;20097;-81
2022/12/12 03:44:52;;;;;;;62.27;38.27;;;1.70;99.90;;;1.70;91.43;100890.00;5053245;28;20068;-81
2022/12/12 03:47:25;;;;;;;59.90;36.97;;;2.00;99.90;;;2.27;90.63;100954.34;5068923;28;20087;-81
2022/12/12 03:50:02;;;;;;;60.87;38.03;;;2.20;99.90;;;2.41;90.05;100953.03;5053290;28;20044;-81
2022/12/12 03:52:37;;;;;;;63.83;38.33;;;2.30;99.90;;;2.37;89.82;100953.78;5053069;28;20045;-80
2022/12/12 03:55:12;;;;;;;64.33;37.47;;;2.40;99.90;;;2.19;89.39;100944.53;5053068;28;20453;-80
2022/12/12 03:57:49;;;;;;;60.93;38.20;;;2.30;99.90;;;1.99;89.84;100958.69;5052958;28;20049;-81
2022/12/12 04:00:18;;;;;;;61.47;36.93;;;2.00;99.90;;;1.36;90.62;100876.72;5053222;28;20073;-81
2022/12/12 04:02:54;;;;;;;62.63;36.47;;;1.80;99.90;;;1.59;91.69;100944.38;5053217;28;20029;-80
2022/12/12 04:05:28;;;;;;;62.90;38.03;;;1.60;99.90;;;1.69;91.96;100955.97;5052876;28;20037;-82
2022/12/12 04:08:07;;;;;;;72.33;38.73;;;1.60;99.90;;;-0.31;92.07;100627.38;5052057;28;20147;-82
2022/12/12 04:13:38;;;;;;;61.77;37.93;;;1.60;99.90;;;1.79;91.91;100945.00;5052764;28;20045;-82
2022/12/12 04:16:11;;;;;;;64.87;38.20;;;1.70;99.90;;;1.18;91.49;100827.50;5052788;28;20043;-81
2022/12/12 04:18:54;;;;;;;61.47;36.93;;;1.80;99.90;;;1.94;91.10;100955.03;5052838;28;20397;-82
2022/12/12 04:24:30;;;;;;;60.23;36.80;;;1.80;99.90;;;1.62;90.99;100941.00;5052729;28;20091;-82
2022/12/12 04:27:06;;;;;;;58.93;34.80;;;1.70;99.90;;;1.39;91.30;100944.56;5053739;28;20037;-81
2022/12/12 04:29:43;;;;;;;57.20;35.47;;;1.50;99.90;;;1.25;91.79;100909.34;5056743;28;20037;-81
2022/12/12 04:32:19;;;;;;;57.70;35.93;;;1.50;99.90;;;1.28;92.09;100919.88;5056634;28;20049;-81
2022/12/12 04:34:55;;;;;;;60.80;35.53;;;1.40;99.90;;;1.55;92.03;100962.44;5056969;28;20048;-82
2022/12/12 04:37:29;;;;;;;58.43;35.53;;;1.40;99.90;;;1.27;91.49;100924.19;5056469;28;20450;-81
2022/12/12 04:40:03;;;;;;;61.60;36.77;;;1.40;99.90;;;1.49;91.58;100988.34;5056525;28;20045;-81
2022/12/12 04:42:36;;;;;;;59.27;36.47;;;1.40;99.90;;;1.44;91.27;100942.97;5056449;28;20041;-81
2022/12/12 04:45:11;;;;;;;60.37;36.97;;;1.50;99.90;;;1.49;91.31;100957.06;5056503;28;20045;-82
2022/12/12 04:47:44;;;;;;;64.00;34.67;;;1.40;99.90;;;1.24;91.35;100947.53;5072108;28;20041;-81
2022/12/12 04:50:14;;;;;;;63.30;34.53;;;1.30;99.90;;;1.44;91.31;100976.84;5056383;28;20044;-81
2022/12/12 04:52:45;;;;;;;57.53;35.55;;;1.40;99.90;;;1.45;91.57;100966.47;5056335;28;20049;-80
2022/12/12 04:55:21;;;;;;;56.20;34.87;;;1.40;99.90;;;0.96;91.29;100910.06;5056198;28;20120;-81
2022/12/12 04:57:53;;;;;;;59.87;35.23;;;1.30;99.90;;;1.22;91.52;100993.47;5056150;28;20123;-82
2022/12/12 05:00:24;;;;;;;64.70;35.50;;;1.20;99.90;;;0.82;91.88;100928.72;5056172;28;20095;-80
2022/12/12 05:03:02;;;;;;;58.87;34.73;;;1.10;99.90;;;0.87;92.76;100947.97;5056035;28;20065;-81
2022/12/12 05:05:38;;;;;;;56.97;34.30;;;0.90;99.90;;;-1.34;92.71;100602.81;5056044;28;20064;-81
2022/12/12 05:08:13;;;;;;;56.83;34.27;;;0.90;99.90;;;-1.63;92.26;100491.94;5054926;28;20446;-81
2022/12/12 05:10:45;;;;;;;61.40;35.57;;;1.00;99.90;;;0.71;92.65;100871.91;5056212;28;20068;-81
2022/12/12 05:13:17;;;;;;;60.20;36.23;;;1.10;99.90;;;1.21;92.00;100942.22;5056241;28;20102;-81
2022/12/12 05:15:47;;;;;;;62.53;37.33;;;1.30;99.90;;;0.87;91.61;100864.66;5054822;28;20148;-81
2022/12/12 05:18:16;;;;;;;61.55;38.38;;;1.40;99.90;;;1.50;91.04;100977.06;5071153;28;20077;-81
2022/12/12 05:20:47;;;;;;;62.77;36.60;;;1.50;99.90;;;1.41;90.68;100980.25;5071417;28;20052;-80
2022/12/12 05:23:16;;;;;;;58.30;33.83;;;1.40;99.90;;;1.18;90.80;100964.69;5055724;28;20045;-81
2022/12/12 05:25:46;;;;;;;58.33;35.10;;;1.30;99.90;;;0.87;91.06;100921.06;5054617;28;20118;-81
2022/12/12 05:28:15;;;;;;;60.88;36.65;;;1.20;99.90;;;1.21;91.20;100970.88;5071220;28;20051;-81
2022/12/12 05:30:46;;;;;;;59.83;37.20;;;1.20;99.90;;;1.47;91.11;100990.00;5055545;28;20110;-81
2022/12/12 05:33:15;;;;;;;65.30;37.37;;;1.30;99.90;;;1.58;90.71;100983.41;5055513;28;20048;-80
2022/12/12 05:35:43;;;;;;;61.77;35.90;;;1.50;99.90;;;1.74;90.22;101011.78;5055408;28;20037;-81
2022/12/12 05:38:11;;;;;;;65.37;36.10;;;1.70;99.90;;;1.74;89.54;100975.28;5054715;28;20053;-81
2022/12/12 05:40:40;;;;;;;60.00;33.53;;;1.80;99.90;;;1.63;89.43;100964.47;5055458;28;20409;-81
2022/12/12 05:43:10;;;;;;;58.70;35.60;;;1.90;99.90;;;1.94;89.06;100996.75;5055480;28;20037;-81
2022/12/12 05:45:38;;;;;;;60.70;35.83;;;1.90;99.90;;;1.92;88.56;100995.84;5070971;28;20398;-81
2022/12/12 05:48:09;;;;;;;56.53;33.57;;;1.80;99.90;;;1.72;88.13;100998.66;5055196;28;20124;-82
2022/12/12 05:50:38;;;;;;;58.17;35.07;;;1.70;99.90;;;1.79;88.66;100999.75;5055164;28;20045;-81
2022/12/12 05:53:06;;;;;;;58.57;33.70;;;1.70;99.90;;;1.73;88.08;100976.09;5055068;28;20055;-81
2022/12/12 05:55:35;;;;;;;62.93;35.20;;;1.80;99.90;;;1.83;87.90;100994.72;5055040;28;20084;-81
2022/12/12 05:58:04;;;;;;;54.83;32.73;;;1.70;99.90;;;1.75;87.81;101000.50;5055218;28;20405;-81
2022/12/12 06:00:34;;;;;;;56.77;33.37;;;1.60;99.90;;;1.52;87.87;100968.47;5055552;28;20120;-81
2022/12/12 06:03:02;;;;;;;58.25;35.38;;;1.70;99.90;;;1.80;87.57;101006.75;5070738;28;20051;-81
2022/12/12 06:05:31;;;;;;;53.53;33.60;;;1.70;99.90;;;1.83;87.47;101012.06;5054814;28;20075;-82
2022/12/12 06:07:59;;;;;;;55.90;32.93;;;1.70;99.90;;;1.56;87.13;100995.50;5053780;28;20115;-81
2022/12/12 06:10:27;;;;;;;53.77;32.67;;;1.60;99.90;;;1.51;87.20;101012.72;5054833;28;20041;-81
2022/12/12 06:12:56;;;;;;;57.37;33.07;;;1.40;99.90;;;1.24;87.75;100954.47;5054687;28;20036;-81
2022/12/12 06:15:24;;;;;;;58.13;33.10;;;1.40;99.90;;;1.57;87.68;101011.19;5053560;28;20447;-80
2022/12/12 06:17:54;;;;;;;52.97;32.37;;;1.40;99.90;;;1.57;87.74;101010.31;5054619;28;20048;-82
2022/12/12 06:20:22;;;;;;;54.05;33.85;;;1.40;99.90;;;1.73;87.97;101021.31;5054531;28;20094;-81
2022/12/12 06:22:51;;;;;;;62.80;35.40;;;1.60;99.90;;;1.77;87.27;101017.06;5054770;28;20047;-80
2022/12/12 06:25:21;;;;;;;60.08;35.00;;;1.70;99.90;;;1.90;87.00;101019.25;5054744;28;20041;-81
2022/12/12 06:27:50;;;;;;;57.30;32.90;;;1.80;99.90;;;1.81;86.68;101030.28;5054416;28;20611;-80
2022/12/12 06:30:19;;;;;;;55.07;33.63;;;1.80;99.90;;;1.74;86.32;101012.63;5054342;28;20449;-81
2022/12/12 06:32:48;;;;;;;53.10;32.53;;;1.70;99.90;;;1.22;86.11;100914.47;5054610;28;20071;-82
2022/12/12 06:35:20;;;;;;;54.70;32.97;;;1.70;99.90;;;-0.60;85.60;100591.72;5054638;28;20041;-80
2022/12/12 06:37:49;;;;;;;53.77;33.07;;;1.70;99.90;;;1.83;85.95;101018.16;5054659;28;20053;-81
2022/12/12 06:40:17;;;;;;;51.73;32.10;;;1.80;99.90;;;1.82;85.99;101031.13;5054492;28;20051;-80
2022/12/12 06:42:46;;;;;;;52.53;33.00;;;1.70;99.90;;;1.49;85.73;100964.88;5054675;28;20621;-81
2022/12/12 06:45:16;;;;;;;54.28;33.03;;;1.70;99.90;;;1.80;85.68;101032.84;5054318;28;20095;-81
2022/12/12 06:47:47;;;;;;;53.47;33.13;;;1.70;99.90;;;1.81;85.93;101037.19;5054060;28;20485;-81
2022/12/12 06:50:17;;;;;;;53.03;32.27;;;1.60;99.90;;;1.76;85.48;101028.34;5054070;28;20076;-81
2022/12/12 06:52:51;;;;;;;55.03;33.47;;;1.70;99.90;;;1.86;85.56;101035.63;5053889;28;20045;-82
2022/12/12 06:55:22;;;;;;;53.20;32.53;;;1.80;99.90;;;1.51;85.17;100971.03;5054327;28;20041;-80
2022/12/12 06:57:50;;;;;;;56.17;31.83;;;1.80;99.90;;;1.28;85.24;100952.00;5053218;28;20049;-81
2022/12/12 07:00:20;;;;;;;57.37;33.03;;;1.70;99.90;;;1.81;85.33;101034.59;5054054;28;20455;-81
2022/12/12 07:02:51;;;;;;;58.17;34.92;;;1.70;99.90;;;1.27;85.26;100975.41;5069287;28;20140;-80
2022/12/12 07:05:24;;;;;;;56.40;33.20;;;1.60;99.90;;;0.81;86.04;100978.97;5054185;28;20371;-80
2022/12/12 07:07:53;;;;;;;56.37;35.27;;;1.20;99.90;;;1.04;87.48;101036.22;5054395;28;20047;-81
2022/12/12 07:10:21;;;;;;;55.03;32.77;;;0.90;99.90;;;1.13;87.84;101037.44;5053854;28;20041;-81
2022/12/12 07:12:49;;;;;;;55.80;31.53;;;1.00;99.90;;;1.14;87.85;101035.72;5053523;28;20051;-80
2022/12/12 07:15:24;;;;;;;52.10;30.87;;;1.00;99.90;;;0.97;87.81;101029.88;5053496;28;20037;-81
2022/12/12 07:17:53;;;;;;;60.10;33.37;;;1.00;99.90;;;1.22;87.63;101042.09;5053403;28;20052;-82
2022/12/12 07:20:21;;;;;;;53.47;32.70;;;1.00;99.90;;;0.82;87.57;100979.88;5053525;28;20102;-81
2022/12/12 07:22:51;;;;;;;56.60;32.87;;;1.00;99.90;;;1.01;87.67;101002.28;5053502;28;20059;-81
2022/12/12 07:25:22;;;;;;;54.15;32.83;;;1.10;99.90;;;1.34;87.44;101055.53;5053685;28;20429;-81
2022/12/12 07:27:51;;;;;;;55.07;33.00;;;1.20;99.90;;;1.13;87.34;101020.91;5053622;28;20048;-79
2022/12/12 07:30:22;;;;;;;56.27;32.93;;;1.20;99.90;;;0.41;87.29;100909.84;5052316;28;20037;-81
2022/12/12 07:32:51;;;;;;;55.93;33.03;;;1.10;99.90;;;1.16;87.47;101060.09;5053471;28;20056;-79
2022/12/12 07:35:20;;;;;;;56.15;31.15;;;1.00;99.90;;;0.57;87.42;100972.91;5052347;28;20057;-76
2022/12/12 07:37:51;;;;;;;58.07;32.57;;;1.00;99.90;;;0.87;87.49;101038.22;5053065;28;20056;-74
2022/12/12 07:40:22;;;;;;;;;;;0.90;99.90;;;0.91;87.55;101045.28;5052668;28;20049;-72
2022/12/12 07:42:52;;;;;;;57.97;33.27;;;1.00;99.90;;;1.08;87.67;101061.53;5053741;28;19925;-74
2022/12/12 07:45:24;;;;;;;64.03;34.27;;;1.00;99.90;;;1.10;87.41;101063.38;5053296;28;20044;-74
2022/12/12 07:47:53;;;;;;;55.73;32.93;;;1.10;99.90;;;1.13;87.47;101059.97;5053608;28;20128;-72
2022/12/12 07:50:23;;;;;;;57.90;32.73;;;1.10;99.90;;;1.02;87.54;101064.81;5053439;28;20051;-74
2022/12/12 07:52:52;;;;;;;57.40;33.33;;;1.10;99.90;;;1.10;87.49;101068.59;5053051;28;20437;-73
2022/12/12 07:55:21;;;;;;;59.75;33.65;;;1.10;99.90;;;0.91;87.39;101053.09;5053059;28;20048;-73
2022/12/12 07:57:49;;;;;;;57.67;34.03;;;1.10;99.90;;;1.10;87.77;101085.91;5053017;28;20437;-73
2022/12/12 08:00:21;;;;;;;57.37;33.30;;;1.10;99.90;;;1.02;87.60;101082.16;5051871;28;20041;-72
2022/12/12 08:02:50;;;;;;;60.27;33.83;;;1.00;99.90;;;0.82;88.26;101082.28;5052382;28;20102;-72
2022/12/12 08:05:18;;;;;;;62.37;34.63;;;0.80;99.90;;;0.67;88.55;101083.44;5053325;28;20044;-72
2022/12/12 08:07:47;;;;;;;65.53;34.17;;;0.70;99.90;;;0.61;89.24;101078.88;5052803;28;20119;-73
2022/12/12 08:10:17;;;;;;;56.37;33.53;;;0.60;99.90;;;0.54;89.10;101023.94;5053019;28;20041;-72
2022/12/12 08:12:48;;;;;;;58.47;34.07;;;0.70;99.90;;;0.99;89.47;101097.66;5053103;28;20047;-71
2022/12/12 08:15:19;;;;;;;61.23;35.40;;;0.90;99.90;;;0.91;88.86;101080.03;5052693;28;20392;-70
2022/12/12 08:17:47;;;;;;;57.87;35.00;;;0.90;99.90;;;0.74;88.89;101059.41;5052844;28;20041;-71
2022/12/12 08:20:16;;;;;;;62.47;34.73;;;0.90;99.90;;;0.78;88.61;101030.06;5051925;28;20509;-73
2022/12/12 08:22:48;;;;;;;59.33;33.07;;;1.00;99.90;;;-0.69;88.36;100776.59;5052990;28;20072;-70
2022/12/12 08:25:18;;;;;;;57.93;33.57;;;1.10;99.90;;;1.13;88.53;101068.69;5052536;28;20040;-71
2022/12/12 08:27:47;;;;;;;56.40;33.15;;;1.20;99.90;;;1.19;87.83;101066.31;5052830;28;20544;-72
2022/12/12 08:30:16;;;;;;;63.77;34.00;;;1.30;99.90;;;1.33;87.42;101100.66;5052478;28;20041;-71
2022/12/12 08:32:44;;;;;;;58.07;34.43;;;1.30;99.90;;;1.03;87.46;101091.75;5053152;28;20045;-74
2022/12/12 08:35:13;;;;;;;57.63;33.63;;;1.00;99.90;;;0.99;87.51;101085.50;5052491;28;20091;-74
2022/12/12 08:37:42;;;;;;;59.17;33.37;;;1.00;99.90;;;0.82;87.50;101064.06;5052249;28;20443;-74
2022/12/12 08:40:12;;;;;;;57.73;34.23;;;1.00;99.90;;;1.14;88.05;101099.13;5052986;28;20052;-76
2022/12/12 08:42:41;;;;;;;56.83;34.13;;;1.00;99.90;;;0.95;87.83;101095.78;5052980;28;20076;-74
2022/12/12 08:45:11;;;;;;;52.92;33.75;;;0.90;99.90;;;1.01;88.02;101093.41;5052625;28;20442;-74
2022/12/12 08:47:40;;;;;;;57.38;32.85;;;0.90;99.90;;;0.76;88.36;101099.38;5052338;28;20419;-74
2022/12/12 08:50:11;;;;;;;56.70;33.03;;;0.70;99.90;;;0.28;89.44;101063.66;5052256;28;20128;-75
2022/12/12 08:52:39;;;;;;;56.88;34.25;;;0.50;99.90;;;0.35;90.49;101084.75;5052301;28;20194;-75
2022/12/12 08:55:09;;;;;;;59.60;34.80;;;0.40;99.90;;;0.78;90.38;101108.13;5052373;28;20037;-73
2022/12/12 08:57:37;;;;;;;56.85;33.83;;;0.60;99.90;;;0.95;89.66;101116.59;5052291;28;20402;-73
2022/12/12 09:00:10;;;;;;;58.93;33.43;;;0.90;99.90;;;1.14;89.58;101112.16;5052735;28;20426;-76
2022/12/12 09:02:38;;;;;;;57.73;33.00;;;1.10;99.90;;;1.19;88.91;101102.78;5051426;28;20048;-74
2022/12/12 09:05:08;;;;;;;59.60;34.00;;;1.30;99.90;;;1.46;88.47;101119.41;5067633;28;20474;-78
2022/12/12 09:07:36;;;;;;;62.93;36.63;;;1.40;99.90;;;1.53;88.04;101115.31;5052269;28;20041;-77
2022/12/12 09:10:07;;;;;;;56.93;33.87;;;1.50;99.90;;;1.06;87.70;101026.75;5052339;28;20045;-75
2022/12/12 09:12:36;;;;;;;60.10;32.77;;;1.70;99.90;;;1.59;87.38;101121.59;5052480;28;20422;-73
2022/12/12 09:15:11;;;;;;;58.53;33.00;;;1.60;99.90;;;1.44;87.35;101112.34;5055245;28;20041;-74
2022/12/12 09:17:40;;;;;;;58.80;33.33;;;1.50;99.90;;;1.57;87.44;101098.91;5054770;28;20075;-73
2022/12/12 09:20:10;;;;;;;56.83;32.47;;;1.60;99.90;;;1.70;87.61;101122.00;5055931;28;20037;-75
2022/12/12 09:22:39;;;;;;;63.80;35.50;;;1.70;99.90;;;1.55;87.36;101092.75;5055742;28;20040;-74
2022/12/12 09:25:09;;;;;;;72.57;39.20;;;1.70;99.90;;;1.86;87.15;101113.84;5056336;28;20029;-72
2022/12/12 09:27:37;;;;;;;;;;;1.90;99.90;;;1.56;87.20;101121.50;5056536;28;20449;-72
2022/12/12 09:30:07;;;;;;;80.10;41.87;;;1.70;99.90;;;1.44;87.91;101126.28;5055572;28;19972;-73
2022/12/12 09:32:37;;;;;;;79.35;44.45;;;1.50;99.90;;;1.30;88.44;101095.31;5055708;28;20041;-75
2022/12/12 09:35:06;;;;;;;86.60;46.58;;;1.50;99.90;;;1.13;88.89;101073.88;5055475;28;20123;-75
2022/12/12 09:37:35;;;;;;;90.83;48.70;;;1.40;99.90;;;1.28;89.09;101076.19;5071093;28;20052;-70
2022/12/12 09:40:05;;;;;;;84.30;47.07;;;1.50;99.90;;;1.39;88.79;101121.72;5055677;28;20048;-70
2022/12/12 09:42:35;;;;;;;94.28;49.15;;;1.50;99.90;;;1.55;88.66;101126.63;5054416;28;20570;-72
2022/12/12 09:45:08;;;;;;;84.30;46.33;;;1.60;99.90;;;1.12;88.58;101123.31;5054367;28;20053;-74
2022/12/12 09:47:43;;;;;;;84.87;46.70;;;1.30;99.90;;;0.85;89.75;101095.41;5055478;28;20069;-73
2022/12/12 09:50:19;;;;;;;81.83;44.03;;;1.10;99.90;;;0.79;90.39;101089.09;5055507;28;20441;-73
2022/12/12 09:52:47;;;;;;;80.47;43.50;;;1.00;99.90;;;0.60;90.24;101014.63;5055580;28;20041;-74
2022/12/12 09:55:36;;;;;;;81.30;46.23;;;1.20;99.90;;;1.47;90.08;101118.56;5055425;28;20099;-73
2022/12/12 09:58:17;;;;;;;80.80;44.93;;;1.40;99.90;;;1.19;90.14;101002.91;5055755;28;20045;-75
2022/12/12 10:00:50;;;;;;;66.37;36.57;;;1.80;99.90;;;1.78;88.87;101125.75;5053690;28;20049;-74
2022/12/12 10:03:42;;;;;;;63.10;36.17;;;1.80;99.90;;;1.40;88.98;101124.38;5055031;28;20052;-74
2022/12/12 10:06:13;;;;;;;63.80;36.77;;;1.50;99.90;;;1.60;88.94;101118.19;5054824;28;20052;-73
2022/12/12 10:09:24;;;;;;;61.38;36.50;;;1.60;99.90;;;1.60;88.29;101123.38;5054924;28;20047;-74
2022/12/12 10:11:55;;;;;;;61.47;36.17;;;1.70;99.90;;;1.42;88.24;101150.50;5055154;28;20091;-75
2022/12/12 10:14:33;;;;;;;66.13;36.30;;;1.40;99.90;;;1.81;88.91;101123.25;5054931;28;20505;-74
2022/12/12 10:17:04;;;;;;;64.73;36.10;;;1.60;99.90;;;1.72;88.16;101069.03;5054795;28;20044;-71
2022/12/12 10:19:48;;;;;;;59.70;35.30;;;1.90;99.90;;;2.08;87.13;101100.69;5054744;28;20063;-72
2022/12/12 10:22:28;;;;;;;63.57;36.60;;;2.00;99.90;;;2.43;87.35;101113.16;5054631;28;20052;-73
2022/12/12 10:25:06;;;;;;;54.88;34.08;;;2.30;99.90;;;2.82;86.35;101118.75;5054190;28;20060;-71
2022/12/12 10:27:35;;;;;;;57.20;34.87;;;2.70;99.90;;;3.31;85.42;101105.41;5055014;28;20045;-73
2022/12/12 10:30:16;;;;;;;57.13;33.97;;;3.30;99.90;;;3.03;82.42;101108.94;5070057;28;20132;-72
2022/12/12 10:33:16;;;;;;;57.20;32.77;;;3.10;99.90;;;3.08;83.11;101109.94;5054861;28;20049;-72
2022/12/12 10:35:54;;;;;;;56.80;31.67;;;3.00;99.90;;;3.21;81.65;101113.81;5054288;28;20055;-72
2022/12/12 10:38:39;;;;;;;53.97;31.27;;;3.10;99.90;;;2.78;81.67;101035.91;5069838;28;20061;-73
2022/12/12 10:41:16;;;;;;;53.50;32.90;;;3.40;99.90;;;3.52;80.91;101101.63;5053273;28;20139;-73
2022/12/12 10:43:55;;;;;;;52.70;32.13;;;3.50;99.90;;;4.02;79.92;101108.22;5054074;28;20132;-71
2022/12/12 10:46:30;;;;;;;51.93;30.40;;;3.90;99.90;;;4.24;78.95;101099.19;5054155;28;20391;-72